Time;durP1;ratioP1;P1;durP2;ratioP2;P2;SDS_P1;SDS_P2;PMS_P1;PMS_P2;Temp;Humidity;BMP_temperature;BMP_pressure;BME280_temperature;BME280_humidity;BME280_pressure;Samples;Min_cycle;Max_cycle;Signal;HPM_P1;HPM_P2
2021/05/04 00:00:55;;;;;;;1.90;1.23;;;;;;;;;;4983036;28;20057;-76
2021/05/04 00:03:20;;;;;;;2.27;1.10;;;;;;;;;;5016578;28;20055;-76
2021/05/04 00:05:45;;;;;;;2.30;1.30;;;;;;;;;;4998800;28;20034;-76
2021/05/04 00:08:11;;;;;;;2.33;1.30;;;;;;;;;;4982930;28;20073;-77
2021/05/04 00:10:36;;;;;;;2.87;1.23;;;;;;;;;;4999309;28;20049;-76
2021/05/04 00:13:02;;;;;;;3.23;1.17;;;;;;;;;;5016714;28;20069;-76
2021/05/04 00:15:27;;;;;;;2.53;1.10;;;;;;;;;;4998680;28;20164;-76
2021/05/04 00:17:52;;;;;;;2.00;1.00;;;;;;;;;;5016555;28;20057;-76
2021/05/04 00:20:18;;;;;;;1.93;1.10;;;;;;;;;;4982575;28;20504;-76
2021/05/04 00:22:43;;;;;;;2.27;1.10;;;;;;;;;;4966559;28;20165;-76
2021/05/04 00:25:09;;;;;;;1.93;1.30;;;;;;;;;;4982136;28;20065;-77
2021/05/04 00:27:35;;;;;;;2.40;1.25;;;;;;;;;;4998362;28;20096;-76
2021/05/04 00:30:00;;;;;;;2.37;1.40;;;;;;;;;;4982400;28;20489;-76
2021/05/04 00:32:25;;;;;;;4.37;1.40;;;;;;;;;;5016058;28;20069;-76
2021/05/04 00:34:51;;;;;;;2.10;1.03;;;;;;;;;;5016260;28;20038;-76
2021/05/04 00:37:17;;;;;;;1.73;1.00;;;;;;;;;;4998004;28;20068;-76
2021/05/04 00:39:42;;;;;;;2.13;1.23;;;;;;;;;;4982455;28;20065;-76
2021/05/04 00:42:08;;;;;;;1.77;1.07;;;;;;;;;;4998109;28;20061;-76
2021/05/04 00:44:33;;;;;;;1.80;1.20;;;;;;;;;;4982021;28;20095;-76
2021/05/04 00:46:58;;;;;;;2.43;1.23;;;;;;;;;;4998393;28;20386;-76
2021/05/04 00:49:24;;;;;;;1.97;1.13;;;;;;;;;;4997951;28;20072;-76
2021/05/04 00:51:52;;;;;;;2.40;1.30;;;;;;;;;;5015561;28;20061;-76
2021/05/04 00:54:17;;;;;;;2.17;1.13;;;;;;;;;;4966330;28;20073;-76
2021/05/04 00:56:43;;;;;;;1.90;1.10;;;;;;;;;;4997499;28;20077;-76
2021/05/04 00:59:08;;;;;;;2.97;1.20;;;;;;;;;;5014817;28;20061;-76
2021/05/04 01:01:33;;;;;;;2.40;1.10;;;;;;;;;;4981748;28;20096;-76
2021/05/04 01:03:59;;;;;;;2.17;1.10;;;;;;;;;;4981556;28;20058;-77
2021/05/04 01:06:24;;;;;;;2.67;1.20;;;;;;;;;;4997274;28;20030;-76
2021/05/04 01:08:50;;;;;;;1.67;1.00;;;;;;;;;;4997999;28;20036;-76
2021/05/04 01:11:15;;;;;;;2.33;1.00;;;;;;;;;;4997641;28;20157;-76
2021/05/04 01:13:41;;;;;;;2.43;1.30;;;;;;;;;;4981225;28;20095;-76
2021/05/04 01:16:07;;;;;;;2.43;1.30;;;;;;;;;;4997440;28;20042;-76
2021/05/04 01:18:32;;;;;;;1.45;0.88;;;;;;;;;;4998061;28;20037;-76
2021/05/04 01:20:58;;;;;;;2.43;1.10;;;;;;;;;;4997811;28;20037;-76
2021/05/04 01:23:23;;;;;;;2.53;1.30;;;;;;;;;;4997296;28;20058;-77
2021/05/04 01:25:48;;;;;;;2.17;1.10;;;;;;;;;;4997257;28;20069;-76
2021/05/04 01:28:14;;;;;;;2.00;1.10;;;;;;;;;;5014797;28;20061;-77
2021/05/04 01:30:39;;;;;;;1.77;1.10;;;;;;;;;;4997431;28;20061;-77
2021/05/04 01:33:05;;;;;;;1.90;1.03;;;;;;;;;;4997294;28;20049;-76
2021/05/04 01:35:31;;;;;;;2.03;1.03;;;;;;;;;;5014415;28;20044;-76
2021/05/04 01:37:57;;;;;;;2.42;1.15;;;;;;;;;;4981436;28;20128;-76
2021/05/04 01:40:22;;;;;;;2.63;1.20;;;;;;;;;;4997369;28;20034;-76
2021/05/04 01:42:47;;;;;;;2.07;1.00;;;;;;;;;;5014882;28;20401;-76
2021/05/04 01:45:13;;;;;;;1.57;1.03;;;;;;;;;;5013173;28;20464;-77
2021/05/04 01:47:39;;;;;;;1.80;1.10;;;;;;;;;;4996752;28;20112;-76
2021/05/04 01:50:05;;;;;;;2.60;1.10;;;;;;;;;;5014577;28;20038;-76
2021/05/04 01:52:32;;;;;;;2.38;1.10;;;;;;;;;;4996334;28;20026;-76
2021/05/04 01:54:57;;;;;;;1.65;1.02;;;;;;;;;;4980997;28;20044;-76
2021/05/04 01:57:23;;;;;;;2.57;1.20;;;;;;;;;;4964330;28;20132;-76
2021/05/04 01:59:49;;;;;;;1.75;1.08;;;;;;;;;;5014160;28;20037;-77
2021/05/04 02:02:14;;;;;;;1.83;1.10;;;;;;;;;;4997262;28;20477;-76
2021/05/04 02:04:39;;;;;;;2.27;1.20;;;;;;;;;;5014407;28;20088;-76
2021/05/04 02:07:05;;;;;;;1.97;1.13;;;;;;;;;;5014406;28;20066;-76
2021/05/04 02:09:31;;;;;;;1.90;1.20;;;;;;;;;;5013907;28;20088;-76
2021/05/04 02:11:56;;;;;;;1.75;0.90;;;;;;;;;;5013933;28;20121;-76
2021/05/04 02:14:22;;;;;;;2.63;1.30;;;;;;;;;;4996771;28;20105;-76
2021/05/04 02:16:47;;;;;;;2.30;1.30;;;;;;;;;;4996931;28;20046;-76
2021/05/04 02:19:12;;;;;;;3.27;1.13;;;;;;;;;;5013929;28;20041;-77
2021/05/04 02:21:38;;;;;;;1.37;0.90;;;;;;;;;;5014013;28;20377;-76
2021/05/04 02:24:04;;;;;;;1.63;0.90;;;;;;;;;;4996233;28;20523;-76
2021/05/04 02:26:29;;;;;;;2.08;1.00;;;;;;;;;;5014418;28;20444;-76
2021/05/04 02:28:54;;;;;;;2.57;1.20;;;;;;;;;;5013778;28;20122;-76
2021/05/04 02:31:20;;;;;;;1.90;1.10;;;;;;;;;;4979910;28;20493;-76
2021/05/04 02:33:45;;;;;;;1.90;1.07;;;;;;;;;;4979662;28;20530;-76
2021/05/04 02:36:10;;;;;;;2.20;1.10;;;;;;;;;;4980061;28;20519;-76
2021/05/04 02:38:36;;;;;;;1.90;1.10;;;;;;;;;;5013840;28;20065;-76
2021/05/04 02:41:02;;;;;;;1.70;0.90;;;;;;;;;;4995987;28;20034;-76
2021/05/04 02:43:27;;;;;;;2.50;0.93;;;;;;;;;;4996024;28;20072;-76
2021/05/04 02:45:52;;;;;;;1.93;1.10;;;;;;;;;;4996036;28;20092;-76
2021/05/04 02:48:18;;;;;;;2.17;1.07;;;;;;;;;;4979959;28;20038;-76
2021/05/04 02:50:43;;;;;;;1.50;1.00;;;;;;;;;;5013896;28;20112;-76
2021/05/04 02:53:09;;;;;;;1.87;1.10;;;;;;;;;;4995846;28;20032;-76
2021/05/04 02:55:34;;;;;;;2.27;1.17;;;;;;;;;;4995706;28;20148;-76
2021/05/04 02:57:59;;;;;;;1.87;1.00;;;;;;;;;;4995930;28;20066;-76
2021/05/04 03:00:25;;;;;;;1.77;1.10;;;;;;;;;;4995665;28;20073;-76
2021/05/04 03:02:50;;;;;;;1.60;1.00;;;;;;;;;;4980196;28;20057;-76
2021/05/04 03:05:15;;;;;;;2.10;1.10;;;;;;;;;;4979226;28;20068;-76
2021/05/04 03:07:41;;;;;;;2.07;1.17;;;;;;;;;;4995771;28;20065;-76
2021/05/04 03:10:07;;;;;;;1.53;1.00;;;;;;;;;;5013110;28;20045;-76
2021/05/04 03:12:32;;;;;;;1.50;0.93;;;;;;;;;;4995696;28;20026;-76
2021/05/04 03:14:57;;;;;;;1.80;1.07;;;;;;;;;;4979674;28;20503;-76
2021/05/04 03:17:23;;;;;;;2.03;1.03;;;;;;;;;;4979514;28;20040;-76
2021/05/04 03:19:48;;;;;;;1.60;0.90;;;;;;;;;;5010830;23;20053;-78
2021/05/04 03:22:13;;;;;;;1.67;1.00;;;;;;;;;;5018652;28;20084;-76
2021/05/04 03:24:39;;;;;;;2.57;1.20;;;;;;;;;;4997770;28;20128;-76
2021/05/04 03:27:04;;;;;;;1.67;0.93;;;;;;;;;;5031699;28;20084;-76
2021/05/04 03:29:30;;;;;;;2.10;1.03;;;;;;;;;;5034986;28;20086;-75
2021/05/04 03:31:55;;;;;;;2.07;1.17;;;;;;;;;;5018318;28;20080;-76
2021/05/04 03:34:20;;;;;;;2.13;1.17;;;;;;;;;;5017981;28;20471;-75
2021/05/04 03:36:46;;;;;;;1.87;1.03;;;;;;;;;;5015199;28;20045;-76
2021/05/04 03:39:11;;;;;;;1.77;1.20;;;;;;;;;;5015862;28;20131;-75
2021/05/04 03:41:36;;;;;;;2.23;1.20;;;;;;;;;;5034741;28;20079;-76
2021/05/04 03:44:02;;;;;;;1.50;1.03;;;;;;;;;;5034953;28;20056;-76
2021/05/04 03:46:27;;;;;;;1.87;1.00;;;;;;;;;;5051384;28;20475;-76
2021/05/04 03:48:53;;;;;;;2.27;1.00;;;;;;;;;;5051562;28;20182;-76
2021/05/04 03:51:18;;;;;;;1.70;1.10;;;;;;;;;;5032846;28;20030;-75
2021/05/04 03:53:43;;;;;;;1.27;0.83;;;;;;;;;;5034810;28;20064;-76
2021/05/04 03:56:09;;;;;;;1.67;1.00;;;;;;;;;;5017979;28;20122;-75
2021/05/04 03:58:34;;;;;;;1.83;0.97;;;;;;;;;;5018644;28;20443;-76
2021/05/04 04:00:59;;;;;;;1.87;1.10;;;;;;;;;;5051139;28;20059;-76
2021/05/04 04:03:25;;;;;;;1.67;1.00;;;;;;;;;;5051357;28;20060;-76
2021/05/04 04:05:52;;;;;;;1.57;0.90;;;;;;;;;;5022535;28;20543;-76
2021/05/04 04:08:17;;;;;;;1.40;0.90;;;;;;;;;;5018264;28;20036;-76
2021/05/04 04:10:43;;;;;;;1.80;1.10;;;;;;;;;;5050961;28;20072;-75
2021/05/04 04:13:08;;;;;;;2.07;0.90;;;;;;;;;;5051159;28;20068;-75
2021/05/04 04:15:33;;;;;;;1.30;0.83;;;;;;;;;;5034748;28;20144;-75
2021/05/04 04:17:59;;;;;;;1.50;1.00;;;;;;;;;;5054799;28;20025;-75
2021/05/04 04:20:24;;;;;;;1.73;1.10;;;;;;;;;;5054257;28;20087;-76
2021/05/04 04:22:49;;;;;;;1.37;0.90;;;;;;;;;;5038134;28;20029;-75
2021/05/04 04:25:15;;;;;;;2.17;1.20;;;;;;;;;;5021575;28;20463;-76
2021/05/04 04:27:40;;;;;;;1.70;0.97;;;;;;;;;;5021488;28;20029;-76
2021/05/04 04:30:06;;;;;;;1.73;1.03;;;;;;;;;;5055131;28;20111;-75
2021/05/04 04:32:31;;;;;;;1.97;1.07;;;;;;;;;;5037965;28;20029;-76
2021/05/04 04:34:56;;;;;;;1.37;0.90;;;;;;;;;;5037788;28;20076;-76
2021/05/04 04:37:22;;;;;;;1.67;0.97;;;;;;;;;;5054104;28;20056;-75
2021/05/04 04:39:47;;;;;;;1.50;0.90;;;;;;;;;;5037523;28;20510;-75
2021/05/04 04:42:12;;;;;;;1.50;0.80;;;;;;;;;;5020771;28;20068;-75
2021/05/04 04:44:38;;;;;;;1.23;0.93;;;;;;;;;;5054471;28;20103;-76
2021/05/04 04:47:06;;;;;;;2.17;0.90;;;;;;;;;;5054675;28;20373;-75
2021/05/04 04:49:31;;;;;;;1.73;0.90;;;;;;;;;;5053974;28;20150;-75
2021/05/04 04:51:57;;;;;;;1.57;0.90;;;;;;;;;;5004535;28;20480;-75
2021/05/04 04:54:22;;;;;;;1.93;0.87;;;;;;;;;;5020815;28;20612;-75
2021/05/04 04:56:47;;;;;;;1.60;1.00;;;;;;;;;;5037542;28;20488;-75
2021/05/04 04:59:13;;;;;;;1.60;0.87;;;;;;;;;;5020572;28;20432;-75
2021/05/04 05:01:38;;;;;;;2.13;1.03;;;;;;;;;;5020528;28;20403;-75
2021/05/04 05:04:04;;;;;;;1.43;0.97;;;;;;;;;;5054935;28;20061;-75
2021/05/04 05:06:29;;;;;;;1.50;0.95;;;;;;;;;;5037018;28;20391;-75
2021/05/04 05:08:55;;;;;;;1.40;0.90;;;;;;;;;;5053650;28;20072;-75
2021/05/04 05:11:20;;;;;;;1.60;0.80;;;;;;;;;;5036685;28;20076;-75
2021/05/04 05:13:46;;;;;;;1.50;0.97;;;;;;;;;;5036917;28;20079;-75
2021/05/04 05:16:12;;;;;;;1.80;1.07;;;;;;;;;;5053642;28;20041;-76
2021/05/04 05:18:38;;;;;;;1.25;0.70;;;;;;;;;;5019828;28;20040;-76
2021/05/04 05:21:03;;;;;;;1.97;1.00;;;;;;;;;;5036501;28;20040;-76
2021/05/04 05:23:28;;;;;;;2.07;0.90;;;;;;;;;;5020048;28;20037;-76
2021/05/04 05:25:54;;;;;;;1.50;0.90;;;;;;;;;;5036578;28;20063;-76
2021/05/04 05:28:19;;;;;;;1.90;1.20;;;;;;;;;;5035413;28;20555;-75
2021/05/04 05:30:44;;;;;;;1.43;0.90;;;;;;;;;;5019658;28;20118;-76
2021/05/04 05:33:10;;;;;;;1.30;0.90;;;;;;;;;;5036778;28;20156;-76
2021/05/04 05:35:36;;;;;;;1.10;0.90;;;;;;;;;;5020110;28;20033;-76
2021/05/04 05:38:05;;;;;;;1.75;0.90;;;;;;;;;;5016770;28;20096;-76
2021/05/04 05:40:31;;;;;;;1.73;1.00;;;;;;;;;;5019316;28;20086;-76
2021/05/04 05:42:57;;;;;;;1.88;1.00;;;;;;;;;;5007337;28;20091;-77
2021/05/04 05:45:22;;;;;;;4.13;1.07;;;;;;;;;;5020105;28;20483;-76
2021/05/04 05:47:47;;;;;;;1.40;0.80;;;;;;;;;;5027786;28;20062;-76
2021/05/04 05:50:12;;;;;;;1.40;0.90;;;;;;;;;;5052582;28;20116;-76
2021/05/04 05:52:38;;;;;;;2.30;1.10;;;;;;;;;;5036228;28;20114;-76
2021/05/04 05:55:03;;;;;;;1.73;1.07;;;;;;;;;;5020803;28;20076;-76
2021/05/04 05:57:29;;;;;;;1.37;0.90;;;;;;;;;;5053384;28;20029;-76
2021/05/04 05:59:54;;;;;;;1.63;0.97;;;;;;;;;;5003167;28;20036;-75
2021/05/04 06:02:19;;;;;;;1.33;0.90;;;;;;;;;;5052835;28;20057;-76
2021/05/04 06:04:45;;;;;;;1.87;1.00;;;;;;;;;;5019670;28;20492;-76
2021/05/04 06:07:10;;;;;;;1.60;1.07;;;;;;;;;;5019328;28;20463;-76
2021/05/04 06:09:36;;;;;;;1.83;0.90;;;;;;;;;;5053844;28;20079;-76
2021/05/04 06:12:01;;;;;;;3.07;1.10;;;;;;;;;;5035556;28;20078;-75
2021/05/04 06:14:27;;;;;;;1.57;0.83;;;;;;;;;;5035278;28;20388;-76
2021/05/04 06:16:52;;;;;;;2.00;1.20;;;;;;;;;;5019579;28;20124;-76
2021/05/04 06:19:18;;;;;;;1.73;1.00;;;;;;;;;;5019345;28;20083;-76
2021/05/04 06:21:43;;;;;;;1.60;1.00;;;;;;;;;;5019077;28;20070;-76
2021/05/04 06:24:09;;;;;;;1.60;0.97;;;;;;;;;;5051974;28;20122;-76
2021/05/04 06:26:34;;;;;;;2.10;1.10;;;;;;;;;;5010388;28;20385;-76
2021/05/04 06:28:59;;;;;;;1.80;1.00;;;;;;;;;;5018218;28;20029;-76
2021/05/04 06:31:26;;;;;;;1.53;0.93;;;;;;;;;;5033139;28;20491;-75
2021/05/04 06:33:51;;;;;;;1.75;1.10;;;;;;;;;;5033118;28;20041;-75
2021/05/04 06:36:17;;;;;;;1.40;0.90;;;;;;;;;;5035638;28;20123;-76
2021/05/04 06:38:42;;;;;;;2.07;1.07;;;;;;;;;;5031850;28;20124;-76
2021/05/04 06:41:07;;;;;;;1.47;0.80;;;;;;;;;;5034972;28;20064;-76
2021/05/04 06:43:33;;;;;;;2.07;1.00;;;;;;;;;;5018645;28;20115;-76
2021/05/04 06:45:58;;;;;;;1.60;1.00;;;;;;;;;;5034956;28;20041;-76
2021/05/04 06:48:24;;;;;;;5.50;1.10;;;;;;;;;;5035144;28;20050;-76
2021/05/04 06:50:50;;;;;;;1.90;1.00;;;;;;;;;;5014825;28;20158;-76
2021/05/04 06:53:15;;;;;;;1.33;0.85;;;;;;;;;;5002466;28;20044;-76
2021/05/04 06:55:41;;;;;;;1.67;1.00;;;;;;;;;;5002143;28;20072;-75
2021/05/04 06:58:06;;;;;;;1.80;1.03;;;;;;;;;;5035137;28;20060;-75
2021/05/04 07:00:31;;;;;;;2.33;1.20;;;;;;;;;;5035315;28;20060;-76
2021/05/04 07:02:57;;;;;;;2.10;1.10;;;;;;;;;;5002223;28;20060;-76
2021/05/04 07:05:22;;;;;;;2.17;1.10;;;;;;;;;;5018609;28;20120;-76
2021/05/04 07:07:47;;;;;;;2.07;1.10;;;;;;;;;;5017853;28;20075;-76
2021/05/04 07:10:13;;;;;;;2.00;0.93;;;;;;;;;;5017363;28;20032;-76
2021/05/04 07:12:38;;;;;;;2.07;1.00;;;;;;;;;;5034472;28;20043;-76
2021/05/04 07:15:04;;;;;;;1.50;0.93;;;;;;;;;;5001786;28;20403;-76
2021/05/04 07:17:30;;;;;;;1.83;0.90;;;;;;;;;;5034997;28;20479;-76
2021/05/04 07:19:56;;;;;;;1.40;1.03;;;;;;;;;;5018031;28;20123;-76
2021/05/04 07:22:25;;;;;;;1.50;0.90;;;;;;;;;;5018988;28;20029;-76
2021/05/04 07:24:50;;;;;;;1.27;0.90;;;;;;;;;;5019448;28;20064;-76
2021/05/04 07:27:15;;;;;;;1.63;1.03;;;;;;;;;;5002009;28;20064;-76
2021/05/04 07:29:41;;;;;;;1.10;0.90;;;;;;;;;;5018459;28;20090;-76
2021/05/04 07:32:06;;;;;;;1.10;0.93;;;;;;;;;;5018580;28;20118;-76
2021/05/04 07:34:31;;;;;;;1.83;1.10;;;;;;;;;;5035191;28;20037;-76
2021/05/04 07:36:57;;;;;;;1.63;0.97;;;;;;;;;;5052877;28;20168;-76
2021/05/04 07:39:22;;;;;;;1.53;1.10;;;;;;;;;;5018432;28;20065;-76
2021/05/04 07:41:47;;;;;;;1.53;0.90;;;;;;;;;;5018550;28;20462;-76
2021/05/04 07:44:13;;;;;;;1.27;0.97;;;;;;;;;;5035057;28;20036;-76
2021/05/04 07:46:38;;;;;;;1.80;1.00;;;;;;;;;;5018282;28;20072;-76
2021/05/04 07:49:07;;;;;;;1.73;0.90;;;;;;;;;;5034959;28;20029;-76
2021/05/04 07:51:32;;;;;;;1.50;1.08;;;;;;;;;;5004381;28;20033;-76
2021/05/04 07:53:57;;;;;;;2.70;0.90;;;;;;;;;;5022060;28;20057;-76
2021/05/04 07:56:23;;;;;;;2.77;0.87;;;;;;;;;;5038795;28;20080;-76
2021/05/04 07:58:48;;;;;;;1.83;1.10;;;;;;;;;;5022322;28;20116;-76
2021/05/04 08:01:13;;;;;;;1.10;0.83;;;;;;;;;;5038569;28;20377;-76
2021/05/04 08:03:39;;;;;;;2.13;1.00;;;;;;;;;;5005538;28;20383;-76
2021/05/04 08:06:04;;;;;;;1.20;0.80;;;;;;;;;;5021885;28;20072;-76
2021/05/04 08:08:30;;;;;;;1.20;0.80;;;;;;;;;;5038634;28;20377;-76
2021/05/04 08:10:55;;;;;;;1.33;0.90;;;;;;;;;;5038433;28;20052;-76
2021/05/04 08:13:21;;;;;;;1.77;1.03;;;;;;;;;;5038259;28;20061;-76
2021/05/04 08:15:48;;;;;;;1.63;0.93;;;;;;;;;;5022103;28;20037;-76
2021/05/04 08:18:15;;;;;;;1.45;1.00;;;;;;;;;;5038405;28;20032;-76
2021/05/04 08:20:47;;;;;;;2.72;0.90;;;;;;;;;;5038333;28;20035;-76
2021/05/04 08:23:13;;;;;;;2.55;0.80;;;;;;;;;;5039538;28;20029;-76
2021/05/04 08:25:38;;;;;;;1.20;0.90;;;;;;;;;;5038067;28;20036;-76
2021/05/04 08:28:04;;;;;;;1.80;0.97;;;;;;;;;;5021623;28;20037;-76
2021/05/04 08:30:29;;;;;;;1.20;0.90;;;;;;;;;;5037966;28;20056;-76
2021/05/04 08:32:55;;;;;;;2.37;1.17;;;;;;;;;;5038276;28;20108;-76
2021/05/04 08:35:20;;;;;;;1.87;0.97;;;;;;;;;;5005224;28;20079;-76
2021/05/04 08:37:45;;;;;;;3.33;1.00;;;;;;;;;;5037854;28;20491;-76
2021/05/04 08:40:11;;;;;;;3.30;1.10;;;;;;;;;;5021321;28;20396;-76
2021/05/04 08:42:36;;;;;;;1.63;0.90;;;;;;;;;;5021225;28;20075;-76
2021/05/04 08:45:03;;;;;;;1.57;1.00;;;;;;;;;;5005019;28;20122;-76
2021/05/04 08:47:29;;;;;;;1.75;0.90;;;;;;;;;;5021203;28;20032;-76
2021/05/04 08:49:54;;;;;;;1.30;0.90;;;;;;;;;;5004864;28;20029;-76
2021/05/04 08:52:20;;;;;;;1.40;1.00;;;;;;;;;;5037613;28;20123;-76
2021/05/04 08:54:45;;;;;;;1.70;0.97;;;;;;;;;;5004504;28;20069;-76
2021/05/04 08:57:10;;;;;;;1.13;0.90;;;;;;;;;;5037670;28;20056;-76
2021/05/04 08:59:36;;;;;;;1.87;1.00;;;;;;;;;;5037390;28;20416;-76
2021/05/04 09:02:01;;;;;;;2.20;0.90;;;;;;;;;;5020971;28;20124;-76
2021/05/04 09:04:39;;;;;;;2.00;0.80;;;;;;;;;;5020828;28;20105;-76
2021/05/04 09:07:31;;;;;;;2.50;1.00;;;;;;;;;;5022560;28;20064;-76
2021/05/04 09:13:01;;;;;;;1.40;1.00;;;;;;;;;;5055029;28;20403;-76
2021/05/04 09:21:30;;;;;;;1.70;1.10;;;;;;;;;;5036337;22;20060;-88
2021/05/04 09:23:55;;;;;;;1.50;0.88;;;;;;;;;;4996472;28;20037;-89
2021/05/04 09:26:31;;;;;;;1.23;0.90;;;;;;;;;;5005229;28;20036;-88
2021/05/04 09:28:58;;;;;;;1.73;0.82;;;;;;;;;;5006622;28;20028;-89
2021/05/04 09:31:24;;;;;;;3.40;1.00;;;;;;;;;;5004935;28;20377;-88
2021/05/04 09:33:50;;;;;;;1.80;0.95;;;;;;;;;;5023975;28;20166;-88
2021/05/04 09:36:38;;;;;;;1.73;0.97;;;;;;;;;;4989555;28;20124;-88
2021/05/04 09:39:04;;;;;;;2.47;1.00;;;;;;;;;;5008520;28;20044;-88
2021/05/04 09:41:30;;;;;;;1.27;0.88;;;;;;;;;;4997046;28;20124;-88
2021/05/04 09:43:55;;;;;;;1.40;0.80;;;;;;;;;;5021269;28;20167;-88
2021/05/04 09:46:20;;;;;;;1.30;0.80;;;;;;;;;;5020861;28;20067;-88
2021/05/04 09:48:46;;;;;;;1.47;1.00;;;;;;;;;;4998086;28;20029;-88
2021/05/04 09:51:19;;;;;;;1.87;1.00;;;;;;;;;;5001283;28;20072;-88
2021/05/04 09:56:14;;;;;;;1.30;0.80;;;;;;;;;;5002588;28;20395;-88
2021/05/04 09:58:43;;;;;;;1.23;0.82;;;;;;;;;;5001550;28;20048;-88
2021/05/04 10:01:12;;;;;;;1.10;0.80;;;;;;;;;;5017851;28;20073;-88
2021/05/04 10:03:38;;;;;;;2.65;1.00;;;;;;;;;;5010759;28;20036;-88
2021/05/04 10:06:05;;;;;;;1.30;0.85;;;;;;;;;;5004321;28;20032;-88
2021/05/04 10:08:32;;;;;;;1.52;1.00;;;;;;;;;;5020714;28;20503;-88
2021/05/04 10:11:05;;;;;;;1.38;0.80;;;;;;;;;;5021189;28;20390;-88
2021/05/04 10:13:31;;;;;;;1.10;0.70;;;;;;;;;;5020156;28;20029;-88
2021/05/04 10:15:57;;;;;;;1.98;1.08;;;;;;;;;;4992067;28;20033;-88
2021/05/04 10:18:22;;;;;;;1.13;0.80;;;;;;;;;;4986995;28;20036;-88
2021/05/04 10:20:48;;;;;;;1.33;0.97;;;;;;;;;;5003497;28;20056;-88
2021/05/04 10:23:13;;;;;;;1.57;0.93;;;;;;;;;;5020743;28;20029;-88
2021/05/04 10:25:42;;;;;;;1.50;0.90;;;;;;;;;;5020273;28;20135;-88
2021/05/04 10:28:07;;;;;;;1.38;0.90;;;;;;;;;;5006111;28;20060;-88
2021/05/04 10:30:33;;;;;;;1.30;0.70;;;;;;;;;;5003851;28;20032;-88
2021/05/04 10:33:01;;;;;;;2.45;0.90;;;;;;;;;;5005281;28;20075;-88
2021/05/04 10:35:32;;;;;;;1.77;0.90;;;;;;;;;;5005141;28;20071;-87
2021/05/04 10:38:08;;;;;;;1.63;0.90;;;;;;;;;;5054721;28;20091;-88
2021/05/04 10:40:46;;;;;;;1.23;0.73;;;;;;;;;;5004765;28;20037;-88
2021/05/04 10:43:21;;;;;;;2.00;0.90;;;;;;;;;;5019812;28;20488;-88
2021/05/04 10:45:46;;;;;;;1.45;0.80;;;;;;;;;;5036189;28;20041;-88
2021/05/04 10:48:11;;;;;;;1.33;0.90;;;;;;;;;;5017421;28;20146;-89
2021/05/04 10:50:54;;;;;;;1.47;0.70;;;;;;;;;;4995776;28;20271;-88
2021/05/04 10:53:20;;;;;;;1.25;0.77;;;;;;;;;;5019620;28;20033;-88
2021/05/04 10:55:56;;;;;;;1.63;0.77;;;;;;;;;;5018997;28;20039;-88
2021/05/04 10:58:27;;;;;;;1.88;1.00;;;;;;;;;;5024776;28;20033;-88
2021/05/04 11:00:53;;;;;;;1.25;0.80;;;;;;;;;;5025262;28;20039;-88
2021/05/04 11:03:31;;;;;;;1.83;0.90;;;;;;;;;;5018286;28;20432;-88
2021/05/04 11:05:57;;;;;;;1.70;0.90;;;;;;;;;;5037022;28;20040;-88
2021/05/04 11:08:23;;;;;;;1.10;0.80;;;;;;;;;;5018888;28;20043;-88
2021/05/04 11:11:22;;;;;;;1.63;0.90;;;;;;;;;;4987038;28;20029;-88
2021/05/04 11:13:52;;;;;;;1.45;0.88;;;;;;;;;;5016605;28;20041;-88
2021/05/04 11:16:47;;;;;;;1.40;0.90;;;;;;;;;;5010064;28;20030;-88
2021/05/04 11:19:16;;;;;;;1.65;0.88;;;;;;;;;;5019940;28;20037;-88
2021/05/04 11:21:48;;;;;;;1.98;0.80;;;;;;;;;;5015389;28;20408;-88
2021/05/04 11:24:14;;;;;;;0.85;0.65;;;;;;;;;;5004207;28;20025;-89
2021/05/04 11:26:47;;;;;;;1.35;0.77;;;;;;;;;;4989495;28;20037;-87
2021/05/04 11:29:14;;;;;;;1.50;0.73;;;;;;;;;;5033834;28;20033;-88
2021/05/04 11:31:50;;;;;;;0.88;0.70;;;;;;;;;;5006812;28;20032;-88
2021/05/04 11:34:38;;;;;;;1.67;0.90;;;;;;;;;;5038733;28;20036;-89
2021/05/04 11:37:11;;;;;;;0.85;0.60;;;;;;;;;;5030860;28;20075;-89
2021/05/04 11:39:38;;;;;;;1.02;0.75;;;;;;;;;;5033034;28;20120;-88
2021/05/04 11:42:03;;;;;;;2.13;0.98;;;;;;;;;;4990349;28;20142;-88
2021/05/04 11:44:33;;;;;;;1.97;0.80;;;;;;;;;;4999039;28;20022;-89
2021/05/04 11:47:27;;;;;;;1.10;0.70;;;;;;;;;;5014166;28;20042;-89
2021/05/04 11:50:25;;;;;;;1.77;0.60;;;;;;;;;;5012095;28;20072;-89
2021/05/04 11:52:52;;;;;;;1.42;0.80;;;;;;;;;;5033124;28;20059;-89
2021/05/04 11:55:18;;;;;;;1.13;0.70;;;;;;;;;;5005838;28;20047;-89
2021/05/04 11:57:46;;;;;;;1.88;0.70;;;;;;;;;;5039121;28;20483;-90
2021/05/04 12:00:19;;;;;;;2.20;0.80;;;;;;;;;;5005367;28;20559;-88
2021/05/04 12:02:46;;;;;;;1.40;0.90;;;;;;;;;;5005669;28;20395;-88
2021/05/04 12:05:14;;;;;;;;;;;;;;;;;;5011361;28;20064;-88
2021/05/04 12:07:40;;;;;;;1.52;1.00;;;;;;;;;;5019981;28;19967;-87
2021/05/04 12:10:26;;;;;;;1.17;0.80;;;;;;;;;;5038897;28;20473;-88
2021/05/04 12:12:55;;;;;;;1.63;0.70;;;;;;;;;;5023617;28;20094;-88
2021/05/04 12:15:25;;;;;;;1.23;0.80;;;;;;;;;;5018451;28;20065;-87
2021/05/04 12:18:02;;;;;;;1.40;0.70;;;;;;;;;;4988942;28;20029;-87
2021/05/04 12:20:33;;;;;;;1.45;0.80;;;;;;;;;;5020961;28;20088;-88
2021/05/04 12:23:00;;;;;;;1.27;0.52;;;;;;;;;;5007752;28;20199;-88
2021/05/04 12:25:46;;;;;;;1.20;0.80;;;;;;;;;;5002989;28;20464;-87
2021/05/04 12:28:19;;;;;;;1.52;0.90;;;;;;;;;;5005823;28;20466;-87
2021/05/04 12:30:45;;;;;;;1.02;0.73;;;;;;;;;;4987811;28;20026;-87
2021/05/04 12:33:11;;;;;;;1.23;0.70;;;;;;;;;;5005471;28;20060;-88
2021/05/04 12:35:41;;;;;;;1.10;0.70;;;;;;;;;;5006143;28;20496;-87
2021/05/04 12:38:15;;;;;;;1.15;0.80;;;;;;;;;;5005443;28;20048;-86
2021/05/04 12:40:42;;;;;;;2.00;0.70;;;;;;;;;;5023260;28;20551;-87
2021/05/04 12:43:20;;;;;;;1.20;0.70;;;;;;;;;;5018440;28;20488;-87
2021/05/04 12:46:02;;;;;;;1.85;0.90;;;;;;;;;;5021759;28;20037;-87
2021/05/04 12:48:28;;;;;;;2.50;0.80;;;;;;;;;;5017691;28;20504;-87
2021/05/04 12:50:57;;;;;;;1.40;0.80;;;;;;;;;;4994941;28;20040;-87
2021/05/04 12:53:31;;;;;;;1.55;0.80;;;;;;;;;;5021266;28;20449;-87
2021/05/04 12:56:14;;;;;;;1.50;0.85;;;;;;;;;;5022755;28;20474;-87
2021/05/04 12:58:55;;;;;;;1.20;0.70;;;;;;;;;;5004325;28;20033;-87
2021/05/04 13:01:36;;;;;;;2.00;0.73;;;;;;;;;;5017902;28;20048;-87
2021/05/04 13:04:04;;;;;;;1.30;0.80;;;;;;;;;;5018512;28;20028;-87
2021/05/04 13:06:38;;;;;;;1.45;0.90;;;;;;;;;;5005316;28;20102;-87
2021/05/04 13:09:14;;;;;;;1.08;0.70;;;;;;;;;;5023041;28;20035;-87
2021/05/04 13:14:45;;;;;;;1.60;0.73;;;;;;;;;;5005278;28;20029;-87
2021/05/04 13:18:21;;;;;;;1.60;0.90;;;;;;;;;;5005807;28;20037;-87
2021/05/04 13:31:59;;;;;;;1.45;0.80;;;;;;;;;;5043783;28;20039;-88
2021/05/04 13:34:33;;;;;;;1.00;0.70;;;;;;;;;;5004657;28;20168;-87
2021/05/04 13:36:59;;;;;;;1.77;0.85;;;;;;;;;;4990346;28;20034;-87
2021/05/04 13:40:20;;;;;;;1.70;0.80;;;;;;;;;;5020499;28;20036;-87
2021/05/04 13:47:44;;;;;;;1.83;0.70;;;;;;;;;;5022180;28;20099;-87
2021/05/04 13:50:10;;;;;;;3.00;0.90;;;;;;;;;;5018477;28;20040;-87
2021/05/04 13:52:36;;;;;;;;;;;;;;;;;;5020187;28;20030;-87
2021/05/04 13:55:01;;;;;;;1.90;0.90;;;;;;;;;;5003207;28;20299;-87
2021/05/04 13:57:27;;;;;;;2.43;0.80;;;;;;;;;;5003326;28;20635;-87
2021/05/04 13:59:55;;;;;;;4.40;0.93;;;;;;;;;;4987231;28;20123;-87
2021/05/04 14:02:28;;;;;;;3.85;1.05;;;;;;;;;;5002973;28;20056;-87
2021/05/04 14:26:21;;;;;;;4.47;1.38;;;;;;;;;;5021695;28;20095;-87
2021/05/04 14:28:46;;;;;;;8.45;1.42;;;;;;;;;;5004086;28;20063;-87
2021/05/04 14:31:11;;;;;;;8.97;1.90;;;;;;;;;;4985971;28;20033;-87
2021/05/04 14:33:37;;;;;;;9.57;1.43;;;;;;;;;;5004132;28;20056;-87
2021/05/04 14:36:24;;;;;;;6.00;1.43;;;;;;;;;;5005309;28;20044;-87
2021/05/04 14:57:41;;;;;;;6.88;1.38;;;;;;;;;;5024306;28;20032;-88
2021/05/04 15:02:41;;;;;;;7.57;1.30;;;;;;;;;;5023454;28;20064;-88
2021/05/04 15:05:15;;;;;;;5.53;1.70;;;;;;;;;;5019689;28;20058;-88
2021/05/04 15:07:40;;;;;;;5.13;1.45;;;;;;;;;;5008702;28;20576;-88
2021/05/04 15:10:06;;;;;;;5.30;1.27;;;;;;;;;;5000265;28;20120;-87
2021/05/04 15:12:32;;;;;;;6.13;1.57;;;;;;;;;;4984179;28;20044;-88
2021/05/04 15:14:59;;;;;;;7.65;1.85;;;;;;;;;;5000941;28;20069;-88
2021/05/04 15:17:33;;;;;;;5.72;1.40;;;;;;;;;;5010525;28;20128;-88
2021/05/04 15:22:42;;;;;;;6.32;1.48;;;;;;;;;;5007271;28;20439;-88
2021/05/04 15:25:08;;;;;;;5.83;1.40;;;;;;;;;;5010858;23;20502;-87
2021/05/04 15:27:34;;;;;;;7.70;1.30;;;;;;;;;;4982320;28;20060;-89
2021/05/04 15:29:59;;;;;;;6.57;1.70;;;;;;;;;;4982258;28;20035;-88
2021/05/04 15:32:30;;;;;;;7.07;1.30;;;;;;;;;;4982001;28;20034;-89
2021/05/04 15:34:59;;;;;;;5.60;1.65;;;;;;;;;;4999419;28;20132;-87
2021/05/04 15:37:25;;;;;;;10.40;1.70;;;;;;;;;;5011007;28;20747;-87
2021/05/04 15:39:56;;;;;;;5.93;1.20;;;;;;;;;;4978313;28;20096;-88
2021/05/04 15:42:26;;;;;;;10.38;1.55;;;;;;;;;;4994968;28;20091;-87
2021/05/04 15:44:57;;;;;;;5.43;1.40;;;;;;;;;;4978587;28;20083;-87
2021/05/04 15:47:29;;;;;;;9.07;1.58;;;;;;;;;;4995033;28;20528;-90
2021/05/04 15:50:00;;;;;;;5.18;1.42;;;;;;;;;;4996857;28;20045;-88
2021/05/04 15:52:37;;;;;;;6.00;1.58;;;;;;;;;;4980461;28;20037;-88
2021/05/04 16:08:22;;;;;;;6.30;1.25;;;;;;;;;;5003476;28;20044;-90
2021/05/04 16:10:49;;;;;;;6.72;1.17;;;;;;;;;;5000113;28;20064;-90
2021/05/04 16:13:14;;;;;;;4.47;1.35;;;;;;;;;;5000887;28;20404;-89
2021/05/04 16:15:41;;;;;;;5.40;1.47;;;;;;;;;;5018537;28;20100;-88